createdAt,value
2023-03-05T00:01:34.899Z,100975.94
2023-03-05T00:04:03.613Z,100975.44
2023-03-05T00:06:31.003Z,100973.00
2023-03-05T00:08:58.565Z,100965.94
2023-03-05T00:11:29.737Z,100967.47
2023-03-05T00:13:56.569Z,100968.75
2023-03-05T00:16:23.273Z,100956.25
2023-03-05T00:18:50.048Z,100960.16
2023-03-05T00:21:28.349Z,100950.81
2023-03-05T00:23:55.809Z,100957.88
2023-03-05T00:26:25.546Z,100953.00
2023-03-05T00:28:52.554Z,100946.66
2023-03-05T00:31:30.380Z,100944.94
2023-03-05T00:33:59.794Z,100936.28
2023-03-05T00:36:27.002Z,100933.91
2023-03-05T00:38:53.530Z,100927.44
2023-03-05T00:41:20.318Z,100922.38
2023-03-05T00:43:47.457Z,100923.78
2023-03-05T00:46:14.041Z,100920.91
2023-03-05T00:48:40.628Z,100912.53
2023-03-05T00:51:07.205Z,100909.25
2023-03-05T00:53:33.700Z,100906.06
2023-03-05T00:56:00.241Z,100904.44
2023-03-05T00:58:27.095Z,100899.88
2023-03-05T01:00:57.647Z,100896.81
2023-03-05T01:03:24.215Z,100889.06
2023-03-05T01:05:50.714Z,100892.34
2023-03-05T01:08:17.667Z,100889.84
2023-03-05T01:10:44.224Z,100890.66
2023-03-05T01:13:10.722Z,100885.28
2023-03-05T01:15:37.248Z,100881.50
2023-03-05T01:18:03.854Z,100885.66
2023-03-05T01:20:30.448Z,100875.84
2023-03-05T01:22:58.937Z,100875.09
2023-03-05T01:25:25.737Z,100876.38
2023-03-05T01:27:52.754Z,100881.69
2023-03-05T01:30:19.440Z,100867.38
2023-03-05T01:32:46.488Z,100868.78
2023-03-05T01:35:21.124Z,100869.25
2023-03-05T01:37:48.091Z,100866.97
2023-03-05T01:40:18.326Z,100862.72
2023-03-05T01:42:46.995Z,100866.16
2023-03-05T01:45:18.386Z,100863.75
2023-03-05T01:47:45.508Z,100870.09
2023-03-05T01:50:16.552Z,100861.38
2023-03-05T01:52:47.061Z,100856.63
2023-03-05T01:55:16.182Z,100860.19
2023-03-05T01:57:46.226Z,100848.69
2023-03-05T02:00:21.139Z,100856.59
2023-03-05T02:02:50.788Z,100863.72
2023-03-05T02:05:20.741Z,100860.25
2023-03-05T02:07:47.369Z,100854.91
2023-03-05T02:10:22.811Z,100848.59
2023-03-05T02:12:50.047Z,100843.78
2023-03-05T02:15:17.207Z,100850.72
2023-03-05T02:17:43.772Z,100841.59
2023-03-05T02:20:14.589Z,100832.16
2023-03-05T02:22:41.196Z,100836.56
2023-03-05T02:25:28.029Z,100830.88
2023-03-05T02:28:02.206Z,100832.06
2023-03-05T02:30:28.770Z,100826.53
2023-03-05T02:33:23.747Z,100825.16
2023-03-05T02:35:50.399Z,100813.28
2023-03-05T02:38:18.826Z,100818.34
2023-03-05T02:40:45.423Z,100814.44
2023-03-05T02:43:13.364Z,100809.78
2023-03-05T02:45:40.076Z,100805.31
2023-03-05T02:48:06.798Z,100802.56
2023-03-05T02:50:34.391Z,100801.66
2023-03-05T02:53:01.058Z,100813.47
2023-03-05T02:55:28.473Z,100797.25
2023-03-05T02:57:54.977Z,100791.72
2023-03-05T03:00:22.348Z,100795.03
2023-03-05T03:02:49.638Z,100796.09
2023-03-05T03:05:16.322Z,100785.69
2023-03-05T03:07:42.836Z,100791.41
2023-03-05T03:10:10.244Z,100783.09
2023-03-05T03:12:41.073Z,100785.25
2023-03-05T03:15:10.172Z,100787.28
2023-03-05T03:17:36.972Z,100782.81
2023-03-05T03:20:05.804Z,100776.75
2023-03-05T03:22:32.651Z,100780.09
2023-03-05T03:25:00.421Z,100775.63
2023-03-05T03:27:27.034Z,100767.00
2023-03-05T03:29:53.493Z,100762.53
2023-03-05T03:32:20.047Z,100759.00
2023-03-05T03:34:48.090Z,100760.88
2023-03-05T03:37:14.892Z,100754.41
2023-03-05T03:39:41.368Z,100752.47
2023-03-05T03:42:07.923Z,100754.66
2023-03-05T03:44:34.438Z,100757.34
2023-03-05T03:47:00.927Z,100754.09
2023-03-05T03:49:27.437Z,100753.78
2023-03-05T03:51:54.596Z,100749.63
2023-03-05T03:54:22.458Z,100741.09
2023-03-05T03:56:48.964Z,100738.66
2023-03-05T03:59:15.538Z,100743.47
2023-03-05T04:01:42.063Z,100736.53
2023-03-05T04:04:08.937Z,100736.47
2023-03-05T04:06:35.536Z,100729.53
2023-03-05T04:09:02.033Z,100719.41
2023-03-05T04:11:28.487Z,100726.25
2023-03-05T04:13:55.050Z,100718.22
2023-03-05T04:16:22.029Z,100722.19
2023-03-05T04:18:48.681Z,100713.97
2023-03-05T04:21:15.187Z,100718.34
2023-03-05T04:23:41.746Z,100713.38
2023-03-05T04:26:08.232Z,100716.25
2023-03-05T04:28:34.765Z,100721.53
2023-03-05T04:31:01.261Z,100711.63
2023-03-05T04:33:27.995Z,100711.09
2023-03-05T04:35:54.556Z,100710.53
2023-03-05T04:38:21.067Z,100707.84
2023-03-05T04:40:47.915Z,100711.22
2023-03-05T04:43:14.584Z,100705.16
2023-03-05T04:45:42.372Z,100702.88
2023-03-05T04:48:09.823Z,100693.19
2023-03-05T04:50:36.402Z,100702.31
2023-03-05T04:53:03.503Z,100700.91
2023-03-05T04:55:30.062Z,100693.19
2023-03-05T04:57:56.536Z,100695.56
2023-03-05T05:00:23.579Z,100700.50
2023-03-05T05:02:51.159Z,100689.91
2023-03-05T05:05:20.436Z,100700.13
2023-03-05T05:07:47.202Z,100698.16
2023-03-05T05:10:14.609Z,100700.69
2023-03-05T05:12:41.094Z,100696.63
2023-03-05T05:15:08.762Z,100693.47
2023-03-05T05:17:35.695Z,100705.56
2023-03-05T05:20:04.986Z,100699.13
2023-03-05T05:22:31.530Z,100695.16
2023-03-05T05:24:58.086Z,100692.91
2023-03-05T05:27:24.898Z,100689.81
2023-03-05T05:29:52.836Z,100689.69
2023-03-05T05:32:20.694Z,100692.28
2023-03-05T05:34:47.550Z,100685.63
2023-03-05T05:37:14.081Z,100684.78
2023-03-05T05:39:40.642Z,100689.59
2023-03-05T05:42:07.217Z,100682.88
2023-03-05T05:44:34.908Z,100690.00
2023-03-05T05:47:01.807Z,100693.38
2023-03-05T05:49:28.355Z,100694.66
2023-03-05T05:51:54.841Z,100695.75
2023-03-05T05:54:21.411Z,100692.19
2023-03-05T05:56:47.948Z,100696.72
2023-03-05T05:59:14.457Z,100701.78
2023-03-05T06:01:41.103Z,100692.25
2023-03-05T06:04:07.656Z,100704.75
2023-03-05T06:06:35.036Z,100694.53
2023-03-05T06:09:01.726Z,100685.00
2023-03-05T06:11:28.682Z,100690.56
2023-03-05T06:13:55.443Z,100693.31
2023-03-05T06:16:24.285Z,100697.00
2023-03-05T06:18:52.124Z,100690.34
2023-03-05T06:21:19.640Z,100691.28
2023-03-05T06:23:47.666Z,100682.59
2023-03-05T06:26:16.789Z,100688.72
2023-03-05T06:28:43.429Z,100680.00
2023-03-05T06:31:13.196Z,100688.31
2023-03-05T06:33:40.716Z,100683.66
2023-03-05T06:36:09.785Z,100677.50
2023-03-05T06:38:36.863Z,100675.81
2023-03-05T06:41:09.365Z,100673.59
2023-03-05T06:43:38.441Z,100676.81
2023-03-05T06:46:25.759Z,100679.38
2023-03-05T06:48:55.619Z,100680.38
2023-03-05T06:51:27.843Z,100676.81
2023-03-05T06:53:54.961Z,100671.91
2023-03-05T06:56:22.108Z,100677.75
2023-03-05T06:58:50.536Z,100676.47
2023-03-05T07:01:17.387Z,100686.91
2023-03-05T07:03:44.109Z,100682.06
2023-03-05T07:06:13.069Z,100684.75
2023-03-05T07:08:39.827Z,100682.06
2023-03-05T07:11:13.948Z,100684.50
2023-03-05T07:13:40.830Z,100685.66
2023-03-05T07:16:10.380Z,100686.44
2023-03-05T07:18:37.008Z,100687.06
2023-03-05T07:21:07.949Z,100692.41
2023-03-05T07:23:35.548Z,100694.63
2023-03-05T07:26:03.639Z,100687.22
2023-03-05T07:28:30.267Z,100688.41
2023-03-05T07:31:01.712Z,100695.69
2023-03-05T07:33:28.454Z,100689.25
2023-03-05T07:35:55.450Z,100689.56
2023-03-05T07:38:22.316Z,100697.00
2023-03-05T07:40:49.343Z,100688.81
2023-03-05T07:43:15.873Z,100684.75
2023-03-05T07:45:43.618Z,100685.56
2023-03-05T07:48:14.489Z,100686.22
2023-03-05T07:50:41.437Z,100688.44
2023-03-05T07:53:08.015Z,100688.56
2023-03-05T07:55:35.110Z,100690.44
2023-03-05T07:58:01.620Z,100687.97
2023-03-05T08:00:28.191Z,100687.06
2023-03-05T08:02:54.794Z,100682.88
2023-03-05T08:05:21.366Z,100683.69
2023-03-05T08:07:47.901Z,100684.50
2023-03-05T08:10:14.421Z,100689.00
2023-03-05T08:12:41.020Z,100686.25
2023-03-05T08:15:08.158Z,100687.63
2023-03-05T08:17:34.742Z,100676.88
2023-03-05T08:20:05.484Z,100680.50
2023-03-05T08:22:35.237Z,100674.66
2023-03-05T08:25:02.131Z,100678.72
2023-03-05T08:27:28.617Z,100682.13
2023-03-05T08:29:55.208Z,100673.91
2023-03-05T08:32:21.895Z,100666.63
2023-03-05T08:34:48.488Z,100664.19
2023-03-05T08:37:14.967Z,100666.75
2023-03-05T08:39:41.530Z,100665.44
2023-03-05T08:42:09.119Z,100661.75
2023-03-05T08:44:35.681Z,100657.66
2023-03-05T08:47:02.254Z,100664.75
2023-03-05T08:49:28.733Z,100653.59
2023-03-05T08:51:55.309Z,100654.78
2023-03-05T08:54:21.810Z,100649.28
2023-03-05T08:56:50.088Z,100644.78
2023-03-05T08:59:16.812Z,100638.75
2023-03-05T09:01:43.385Z,100624.53
2023-03-05T09:04:09.986Z,100635.50
2023-03-05T09:06:40.328Z,100642.06
2023-03-05T09:09:08.192Z,100642.84
2023-03-05T09:11:36.196Z,100646.44
2023-03-05T09:14:03.986Z,100636.63
2023-03-05T09:16:30.580Z,100644.56
2023-03-05T09:18:57.175Z,100630.34
2023-03-05T09:21:23.758Z,100628.41
2023-03-05T09:23:50.457Z,100624.75
2023-03-05T09:26:19.472Z,100639.66
2023-03-05T09:28:46.310Z,100622.28
2023-03-05T09:31:12.873Z,100620.44
2023-03-05T09:33:39.427Z,100627.47
2023-03-05T09:36:22.875Z,100619.41
2023-03-05T09:38:49.472Z,100621.06
2023-03-05T09:41:22.509Z,100614.84
2023-03-05T09:44:08.763Z,100624.31
2023-03-05T09:46:54.852Z,100620.34
2023-03-05T09:49:32.400Z,100621.59
2023-03-05T09:52:07.970Z,100611.34
2023-03-05T09:54:42.709Z,100614.38
2023-03-05T09:57:18.462Z,100609.81
2023-03-05T09:59:57.665Z,100609.44
2023-03-05T10:02:31.164Z,100614.16
2023-03-05T10:05:45.459Z,100601.22
2023-03-05T10:08:12.390Z,100604.94
2023-03-05T10:10:45.173Z,100600.09
2023-03-05T10:13:30.831Z,100599.44
2023-03-05T10:16:16.998Z,100600.03
2023-03-05T10:18:57.854Z,100597.34
2023-03-05T10:21:32.603Z,100596.97
2023-03-05T10:24:06.047Z,100590.03
2023-03-05T10:26:53.663Z,100589.22
2023-03-05T10:29:34.148Z,100586.03
2023-03-05T10:32:23.221Z,100578.63
2023-03-05T10:35:07.551Z,100571.59
2023-03-05T10:37:50.366Z,100570.16
2023-03-05T10:40:32.567Z,100566.91
2023-03-05T10:43:40.724Z,100569.72
2023-03-05T10:46:14.320Z,100563.28
2023-03-05T10:48:44.097Z,100556.06
2023-03-05T10:51:20.877Z,100558.75
2023-03-05T10:53:57.224Z,100552.69
2023-03-05T10:56:26.278Z,100554.44
2023-03-05T10:58:53.527Z,100558.59
2023-03-05T11:01:24.349Z,100555.06
2023-03-05T11:04:05.300Z,100555.16
2023-03-05T11:06:46.446Z,100550.69
2023-03-05T11:09:12.904Z,100552.28
2023-03-05T11:11:39.474Z,100553.66
2023-03-05T11:14:05.978Z,100543.28
2023-03-05T11:16:46.983Z,100549.50
2023-03-05T11:19:24.985Z,100552.03
2023-03-05T11:22:06.656Z,100546.19
2023-03-05T11:24:33.877Z,100548.31
2023-03-05T11:27:00.521Z,100539.81
2023-03-05T11:29:29.870Z,100547.13
2023-03-05T11:31:56.770Z,100546.84
2023-03-05T11:34:31.318Z,100549.38
2023-03-05T11:36:57.699Z,100549.44
2023-03-05T11:39:26.119Z,100531.34
2023-03-05T11:41:56.061Z,100533.66
2023-03-05T11:44:26.326Z,100528.72
2023-03-05T11:46:56.591Z,100534.44
2023-03-05T11:49:28.746Z,100527.13
2023-03-05T11:52:00.401Z,100533.16
2023-03-05T11:54:33.665Z,100533.00
2023-03-05T11:57:00.757Z,100537.00
2023-03-05T11:59:34.694Z,100525.63
2023-03-05T12:02:01.297Z,100528.00
2023-03-05T12:04:27.861Z,100527.56
2023-03-05T12:06:57.734Z,100518.09
2023-03-05T12:09:42.319Z,100515.72
2023-03-05T12:12:36.008Z,100513.56
2023-03-05T12:15:11.520Z,100511.06
2023-03-05T12:17:47.244Z,100506.91
2023-03-05T12:20:27.819Z,100493.63
2023-03-05T12:22:56.077Z,100490.75
2023-03-05T12:25:30.927Z,100484.28
2023-03-05T12:27:57.604Z,100488.91
2023-03-05T12:30:53.421Z,100488.13
2023-03-05T12:33:32.361Z,100480.44
2023-03-05T12:36:17.626Z,100473.72
2023-03-05T12:38:46.391Z,100476.09
2023-03-05T12:41:27.824Z,100466.25
2023-03-05T12:44:07.015Z,100464.44
2023-03-05T12:46:38.178Z,100474.41
2023-03-05T12:49:28.308Z,100473.44
2023-03-05T12:51:56.771Z,100470.19
2023-03-05T12:54:36.144Z,100464.34
2023-03-05T12:57:06.583Z,100475.19
2023-03-05T12:59:40.899Z,100476.78
2023-03-05T13:02:26.771Z,100488.22
2023-03-05T13:04:57.897Z,100478.53
2023-03-05T13:07:24.327Z,100475.34
2023-03-05T13:09:56.064Z,100472.06
2023-03-05T13:12:23.686Z,100464.59
2023-03-05T13:15:04.261Z,100461.94
2023-03-05T13:17:38.303Z,100467.72
2023-03-05T13:20:27.944Z,100470.19
2023-03-05T13:23:23.518Z,100464.03
2023-03-05T13:25:56.151Z,100456.50
2023-03-05T13:28:22.959Z,100453.34
2023-03-05T13:30:55.084Z,100456.75
2023-03-05T13:33:36.084Z,100444.16
2023-03-05T13:36:03.162Z,100434.22
2023-03-05T13:38:32.842Z,100438.88
2023-03-05T13:41:23.550Z,100440.44
2023-03-05T13:43:57.213Z,100441.06
2023-03-05T13:46:25.587Z,100445.19
2023-03-05T13:48:52.068Z,100443.63
2023-03-05T13:51:19.079Z,100439.44
2023-03-05T13:53:45.797Z,100439.16
2023-03-05T13:56:18.930Z,100437.44
2023-03-05T13:58:53.472Z,100432.91
2023-03-05T14:01:32.874Z,100425.41
2023-03-05T14:04:17.656Z,100423.97
2023-03-05T14:07:00.155Z,100427.09
2023-03-05T14:09:33.053Z,100431.72
2023-03-05T14:12:04.996Z,100429.50
2023-03-05T14:14:35.353Z,100419.91
2023-03-05T14:17:23.316Z,100425.03
2023-03-05T14:19:50.059Z,100423.84
2023-03-05T14:22:33.849Z,100429.47
2023-03-05T14:25:00.335Z,100433.28
2023-03-05T14:27:28.711Z,100428.69
2023-03-05T14:29:55.284Z,100443.84
2023-03-05T14:32:26.548Z,100444.34
2023-03-05T14:34:56.755Z,100442.81
2023-03-05T14:37:26.457Z,100429.84
2023-03-05T14:39:55.513Z,100431.00
2023-03-05T14:42:38.440Z,100424.19
2023-03-05T14:45:17.255Z,100430.38
2023-03-05T14:47:43.961Z,100426.44
2023-03-05T14:50:19.433Z,100418.38
2023-03-05T14:52:48.335Z,100410.19
2023-03-05T14:55:16.300Z,100412.59
2023-03-05T14:57:42.778Z,100412.28
2023-03-05T15:00:24.735Z,100404.81
2023-03-05T15:02:51.397Z,100409.91
2023-03-05T15:05:18.773Z,100399.66
2023-03-05T15:07:46.090Z,100402.19
2023-03-05T15:10:16.058Z,100395.06
2023-03-05T15:12:42.579Z,100393.81
2023-03-05T15:15:11.251Z,100395.81
2023-03-05T15:17:42.450Z,100382.41
2023-03-05T15:20:15.097Z,100391.25
2023-03-05T15:22:41.639Z,100385.88
2023-03-05T15:25:08.451Z,100388.25
2023-03-05T15:27:34.987Z,100380.38
2023-03-05T15:30:01.610Z,100383.53
2023-03-05T15:32:29.231Z,100387.34
2023-03-05T15:34:55.759Z,100387.34
2023-03-05T15:37:22.822Z,100382.94
2023-03-05T15:39:49.365Z,100376.91
2023-03-05T15:42:16.277Z,100379.75
2023-03-05T15:44:43.879Z,100377.72
2023-03-05T15:47:10.414Z,100369.53
2023-03-05T15:49:36.878Z,100372.03
2023-03-05T15:52:03.496Z,100367.13
2023-03-05T15:54:30.029Z,100370.00
2023-03-05T15:56:56.577Z,100375.97
2023-03-05T15:59:23.122Z,100375.34
2023-03-05T16:01:50.965Z,100370.44
2023-03-05T16:04:18.099Z,100368.09
2023-03-05T16:06:46.251Z,100368.72
2023-03-05T16:09:13.880Z,100362.75
2023-03-05T16:11:40.899Z,100360.66
2023-03-05T16:14:10.118Z,100356.25
2023-03-05T16:16:36.886Z,100361.78
2023-03-05T16:19:05.935Z,100358.47
2023-03-05T16:21:32.435Z,100362.94
2023-03-05T16:23:59.488Z,100356.47
2023-03-05T16:26:26.158Z,100364.97
2023-03-05T16:28:52.710Z,100359.91
2023-03-05T16:31:19.240Z,100357.69
2023-03-05T16:33:45.854Z,100362.91
2023-03-05T16:36:24.413Z,100367.16
2023-03-05T16:38:52.827Z,100365.09
2023-03-05T16:41:21.989Z,100362.41
2023-03-05T16:43:50.202Z,100363.53
2023-03-05T16:46:17.166Z,100358.63
2023-03-05T16:48:43.746Z,100360.38
2023-03-05T16:51:11.681Z,100353.75
2023-03-05T16:53:39.244Z,100359.91
2023-03-05T16:56:07.792Z,100353.44
2023-03-05T16:58:34.847Z,100367.19
2023-03-05T17:01:01.820Z,100370.34
2023-03-05T17:03:28.849Z,100370.78
2023-03-05T17:05:55.441Z,100372.06
2023-03-05T17:08:22.186Z,100370.16
2023-03-05T17:10:48.836Z,100368.09
2023-03-05T17:13:15.307Z,100370.03
2023-03-05T17:18:13.493Z,100365.13
2023-03-05T17:20:40.805Z,100364.16
2023-03-05T17:23:07.298Z,100358.81
2023-03-05T17:25:34.101Z,100359.13
2023-03-05T17:28:00.616Z,100368.75
2023-03-05T17:30:27.196Z,100360.25
2023-03-05T17:32:54.003Z,100356.47
2023-03-05T17:35:22.320Z,100364.50
2023-03-05T17:37:53.406Z,100353.94
2023-03-05T17:40:20.029Z,100354.72
2023-03-05T17:42:46.525Z,100357.06
2023-03-05T17:45:13.935Z,100360.88
2023-03-05T17:47:40.530Z,100357.06
2023-03-05T17:50:08.069Z,100355.22
2023-03-05T17:52:38.374Z,100350.94
2023-03-05T17:55:10.626Z,100345.09
2023-03-05T17:57:38.207Z,100338.47
2023-03-05T18:00:05.893Z,100343.84
2023-03-05T18:02:38.939Z,100340.22
2023-03-05T18:05:06.404Z,100330.13
2023-03-05T18:07:33.420Z,100335.03
2023-03-05T18:10:00.096Z,100339.59
2023-03-05T18:12:26.687Z,100346.84
2023-03-05T18:14:54.747Z,100345.75
2023-03-05T18:17:22.775Z,100338.19
2023-03-05T18:19:49.852Z,100339.28
2023-03-05T18:22:16.478Z,100342.44
2023-03-05T18:24:43.223Z,100337.53
2023-03-05T18:27:09.825Z,100331.09
2023-03-05T18:29:36.330Z,100331.84
2023-03-05T18:32:02.906Z,100331.56
2023-03-05T18:34:29.812Z,100332.31
2023-03-05T18:36:56.429Z,100331.25
2023-03-05T18:39:22.956Z,100332.31
2023-03-05T18:41:49.551Z,100324.63
2023-03-05T18:44:16.215Z,100328.06
2023-03-05T18:46:42.888Z,100326.03
2023-03-05T18:49:09.685Z,100318.59
2023-03-05T18:51:36.957Z,100316.41
2023-03-05T18:54:03.542Z,100322.41
2023-03-05T18:56:30.140Z,100315.75
2023-03-05T18:58:58.654Z,100311.66
2023-03-05T19:01:25.517Z,100317.66
2023-03-05T19:03:52.878Z,100318.28
2023-03-05T19:06:19.513Z,100312.13
2023-03-05T19:08:46.680Z,100306.94
2023-03-05T19:11:21.001Z,100299.84
2023-03-05T19:13:51.550Z,100295.75
2023-03-05T19:16:23.700Z,100305.06
2023-03-05T19:19:03.940Z,100300.66
2023-03-05T19:21:31.185Z,100299.06
2023-03-05T19:23:57.736Z,100300.66
2023-03-05T19:26:24.299Z,100298.88
2023-03-05T19:28:50.840Z,100293.22
2023-03-05T19:31:17.437Z,100296.22
2023-03-05T19:33:44.048Z,100295.13
2023-03-05T19:36:11.411Z,100297.16
2023-03-05T19:38:38.579Z,100291.19
2023-03-05T19:41:05.637Z,100300.78
2023-03-05T19:43:32.596Z,100290.69
2023-03-05T19:46:04.293Z,100298.56
2023-03-05T19:48:31.648Z,100290.53
2023-03-05T19:50:58.261Z,100287.09
2023-03-05T19:53:25.281Z,100278.72
2023-03-05T19:55:52.072Z,100281.88
2023-03-05T19:58:18.743Z,100283.59
2023-03-05T20:00:45.359Z,100283.75
2023-03-05T20:03:12.256Z,100281.09
2023-03-05T20:05:40.978Z,100279.50
2023-03-05T20:08:07.598Z,100282.03
2023-03-05T20:10:34.298Z,100273.19
2023-03-05T20:13:01.740Z,100273.69
2023-03-05T20:15:29.315Z,100267.84
2023-03-05T20:17:57.601Z,100267.06
2023-03-05T20:20:24.898Z,100264.69
2023-03-05T20:22:51.382Z,100259.94
2023-03-05T20:25:21.118Z,100261.56
2023-03-05T20:27:47.790Z,100257.28
2023-03-05T20:30:15.569Z,100260.75
2023-03-05T20:32:42.150Z,100256.00
2023-03-05T20:35:13.386Z,100256.50
2023-03-05T20:37:49.144Z,100261.06
2023-03-05T20:40:16.815Z,100259.78
2023-03-05T20:42:43.490Z,100257.75
2023-03-05T20:45:10.401Z,100258.69
2023-03-05T20:47:46.175Z,100253.81
2023-03-05T20:50:14.473Z,100246.88
2023-03-05T20:52:41.100Z,100242.59
2023-03-05T20:55:08.559Z,100242.59
2023-03-05T20:57:35.063Z,100231.59
2023-03-05T21:00:03.479Z,100235.53
2023-03-05T21:02:31.159Z,100230.63
2023-03-05T21:04:57.687Z,100228.13
2023-03-05T21:07:26.216Z,100224.19
2023-03-05T21:09:52.759Z,100226.69
2023-03-05T21:12:19.295Z,100219.59
2023-03-05T21:14:45.844Z,100219.75
2023-03-05T21:17:12.370Z,100217.22
2023-03-05T21:19:39.301Z,100209.19
2023-03-05T21:22:05.931Z,100216.16
2023-03-05T21:24:43.458Z,100212.97
2023-03-05T21:27:09.977Z,100209.03
2023-03-05T21:29:36.512Z,100198.97
2023-03-05T21:32:03.322Z,100205.25
2023-03-05T21:34:29.868Z,100203.53
2023-03-05T21:36:56.378Z,100203.69
2023-03-05T21:39:22.870Z,100198.97
2023-03-05T21:41:49.438Z,100198.63
2023-03-05T21:44:17.647Z,100200.38
2023-03-05T21:46:44.237Z,100192.81
2023-03-05T21:49:10.986Z,100184.16
2023-03-05T21:51:48.908Z,100180.84
2023-03-05T21:54:15.419Z,100173.91
2023-03-05T21:56:41.943Z,100169.97
2023-03-05T21:59:08.478Z,100163.66
2023-03-05T22:01:35.084Z,100168.72
2023-03-05T22:04:01.724Z,100167.13
2023-03-05T22:06:28.299Z,100167.59
2023-03-05T22:08:54.838Z,100163.03
2023-03-05T22:11:22.371Z,100149.81
2023-03-05T22:13:48.903Z,100151.69
2023-03-05T22:16:23.832Z,100151.06
2023-03-05T22:18:50.882Z,100148.69
2023-03-05T22:21:19.560Z,100147.91
2023-03-05T22:23:46.685Z,100143.19
2023-03-05T22:26:13.594Z,100138.63
2023-03-05T22:28:40.271Z,100135.94
2023-03-05T22:31:06.805Z,100129.47
2023-03-05T22:33:33.364Z,100127.09
2023-03-05T22:36:00.118Z,100123.63
2023-03-05T22:38:26.656Z,100120.81
2023-03-05T22:40:53.531Z,100118.78
2023-03-05T22:43:20.622Z,100116.09
2023-03-05T22:45:47.224Z,100109.00
2023-03-05T22:48:13.827Z,100096.56
2023-03-05T22:50:41.666Z,100099.41
2023-03-05T22:53:08.318Z,100092.31
2023-03-05T22:55:39.035Z,100089.00
2023-03-05T22:58:05.647Z,100081.75
2023-03-05T23:00:32.209Z,100084.13
2023-03-05T23:02:58.775Z,100083.63
2023-03-05T23:05:25.509Z,100075.63
2023-03-05T23:07:52.032Z,100078.28
2023-03-05T23:10:26.440Z,100075.59
2023-03-05T23:12:54.720Z,100067.41
2023-03-05T23:15:27.582Z,100061.91
2023-03-05T23:17:54.183Z,100067.13
2023-03-05T23:20:22.942Z,100057.19
2023-03-05T23:22:52.723Z,100054.53
2023-03-05T23:25:20.405Z,100065.53
2023-03-05T23:27:46.893Z,100054.69
2023-03-05T23:30:24.161Z,100053.75
2023-03-05T23:33:04.279Z,100051.88
2023-03-05T23:35:39.294Z,100053.44
2023-03-05T23:38:08.810Z,100051.38
2023-03-05T23:40:37.493Z,100056.72
2023-03-05T23:43:04.415Z,100050.44
2023-03-05T23:45:31.341Z,100052.94
2023-03-05T23:47:58.487Z,100051.38
2023-03-05T23:50:30.324Z,100040.69
2023-03-05T23:52:57.338Z,100040.06
2023-03-05T23:55:33.855Z,100035.97
2023-03-05T23:58:00.508Z,100025.88
